createdAt,value
2018-12-23T00:00:48.158Z,90.18
2018-12-23T00:03:15.632Z,90.48
2018-12-23T00:05:43.074Z,89.86
2018-12-23T00:08:10.488Z,90.52
2018-12-23T00:10:37.905Z,90.47
2018-12-23T00:13:05.364Z,90.84
2018-12-23T00:15:32.789Z,90.62
2018-12-23T00:18:00.220Z,90.80
2018-12-23T00:20:27.747Z,90.32
2018-12-23T00:22:55.191Z,91.03
2018-12-23T00:25:22.629Z,90.22
2018-12-23T00:27:50.084Z,90.74
2018-12-23T00:30:17.568Z,90.99
2018-12-23T00:32:45.924Z,90.95
2018-12-23T00:35:20.347Z,90.70
2018-12-23T00:37:42.777Z,91.08
2018-12-23T00:40:10.202Z,90.70
2018-12-23T00:42:37.707Z,90.90
2018-12-23T00:45:06.189Z,91.22
2018-12-23T00:47:33.609Z,90.79
2018-12-23T00:50:01.086Z,90.18
2018-12-23T00:52:28.549Z,90.76
2018-12-23T00:54:55.987Z,90.59
2018-12-23T00:57:23.481Z,90.64
2018-12-23T00:59:50.919Z,90.65
2018-12-23T01:02:18.991Z,91.12
2018-12-23T01:04:46.437Z,90.42
2018-12-23T01:07:15.710Z,90.65
2018-12-23T01:09:43.178Z,91.11
2018-12-23T01:12:10.677Z,90.38
2018-12-23T01:14:38.127Z,90.74
2018-12-23T01:17:05.591Z,89.97
2018-12-23T01:19:33.025Z,90.35
2018-12-23T01:22:00.475Z,90.51
2018-12-23T01:24:27.903Z,90.15
2018-12-23T01:26:55.349Z,89.97
2018-12-23T01:29:22.868Z,90.57
2018-12-23T01:31:50.328Z,89.87
2018-12-23T01:34:17.800Z,90.00
2018-12-23T01:36:45.354Z,90.13
2018-12-23T01:39:12.967Z,90.14
2018-12-23T01:41:40.403Z,90.39
2018-12-23T01:44:07.934Z,90.53
2018-12-23T01:46:35.355Z,90.38
2018-12-23T01:49:02.817Z,90.26
2018-12-23T01:51:30.275Z,90.45
2018-12-23T01:53:57.733Z,90.58
2018-12-23T01:56:25.141Z,90.96
2018-12-23T01:58:52.683Z,90.17
2018-12-23T02:01:20.085Z,90.46
2018-12-23T02:03:47.765Z,90.62
2018-12-23T02:06:15.173Z,90.77
2018-12-23T02:08:42.692Z,90.53
2018-12-23T02:11:10.134Z,90.26
2018-12-23T02:13:37.560Z,90.83
2018-12-23T02:16:05.030Z,90.31
2018-12-23T02:18:32.441Z,90.57
2018-12-23T02:20:59.939Z,91.15
2018-12-23T02:23:27.426Z,90.57
2018-12-23T02:25:54.881Z,90.56
2018-12-23T02:28:22.320Z,90.55
2018-12-23T02:30:49.816Z,90.97
2018-12-23T02:33:17.350Z,90.79
2018-12-23T02:35:44.918Z,91.05
2018-12-23T02:38:12.363Z,90.10
2018-12-23T02:40:39.826Z,90.61
2018-12-23T02:43:07.254Z,90.51
2018-12-23T02:45:34.741Z,90.14
2018-12-23T02:48:02.218Z,91.03
2018-12-23T02:50:29.680Z,91.04
2018-12-23T02:52:57.104Z,90.54
2018-12-23T02:55:24.576Z,90.85
2018-12-23T02:57:52.103Z,90.62
2018-12-23T03:00:19.601Z,89.89
2018-12-23T03:02:47.046Z,90.22
2018-12-23T03:05:14.522Z,90.12
2018-12-23T03:07:41.959Z,90.23
2018-12-23T03:10:09.434Z,90.07
2018-12-23T03:12:36.853Z,90.08
2018-12-23T03:15:04.380Z,90.03
2018-12-23T03:17:31.895Z,90.04
2018-12-23T03:19:59.331Z,89.99
2018-12-23T03:22:26.774Z,90.17
2018-12-23T03:24:54.271Z,90.57
2018-12-23T03:27:21.735Z,90.25
2018-12-23T03:29:49.197Z,90.38
2018-12-23T03:32:16.644Z,90.89
2018-12-23T03:34:44.073Z,90.67
2018-12-23T03:37:11.561Z,90.46
2018-12-23T03:39:39.018Z,90.47
2018-12-23T03:42:07.377Z,90.11
2018-12-23T03:44:34.811Z,90.79
2018-12-23T03:47:02.233Z,90.19
2018-12-23T03:49:29.689Z,90.61
2018-12-23T03:51:57.110Z,90.05
2018-12-23T03:54:24.662Z,90.70
2018-12-23T03:56:52.148Z,90.27
2018-12-23T03:59:19.563Z,90.44
2018-12-23T04:01:47.029Z,90.53
2018-12-23T04:04:14.490Z,90.17
2018-12-23T04:06:41.946Z,91.00
2018-12-23T04:09:09.406Z,90.65
2018-12-23T04:11:36.825Z,91.23
2018-12-23T04:14:04.272Z,90.67
2018-12-23T04:16:32.502Z,90.81
2018-12-23T04:18:59.959Z,90.94
2018-12-23T04:21:27.527Z,90.75
2018-12-23T04:23:54.981Z,90.96
2018-12-23T04:26:22.439Z,90.66
2018-12-23T04:28:49.874Z,90.77
2018-12-23T04:31:17.327Z,90.73
2018-12-23T04:33:44.816Z,91.53
2018-12-23T04:36:12.265Z,91.33
2018-12-23T04:38:39.716Z,90.90
2018-12-23T04:41:07.166Z,91.06
2018-12-23T04:43:34.623Z,91.89
2018-12-23T04:46:02.111Z,91.90
2018-12-23T04:48:29.545Z,91.17
2018-12-23T04:50:56.995Z,91.48
2018-12-23T04:53:24.449Z,91.96
2018-12-23T04:55:51.918Z,91.81
2018-12-23T04:58:19.360Z,91.90
2018-12-23T05:00:46.779Z,91.91
2018-12-23T05:03:14.205Z,91.09
2018-12-23T05:05:41.632Z,91.64
2018-12-23T05:08:09.050Z,91.45
2018-12-23T05:10:36.650Z,91.86
2018-12-23T05:13:04.217Z,91.22
2018-12-23T05:15:31.679Z,91.90
2018-12-23T05:17:59.115Z,92.04
2018-12-23T05:20:26.574Z,91.27
2018-12-23T05:22:54.037Z,91.54
2018-12-23T05:25:21.465Z,92.02
2018-12-23T05:27:48.881Z,92.01
2018-12-23T05:30:16.336Z,92.03
2018-12-23T05:32:43.765Z,91.63
2018-12-23T05:35:11.316Z,91.21
2018-12-23T05:37:38.868Z,91.55
2018-12-23T05:40:06.337Z,91.37
2018-12-23T05:42:33.778Z,91.58
2018-12-23T05:45:01.670Z,91.56
2018-12-23T05:47:29.090Z,90.97
2018-12-23T05:49:56.600Z,91.00
2018-12-23T05:52:24.154Z,90.88
2018-12-23T05:54:51.587Z,91.14
2018-12-23T05:57:19.063Z,91.00
2018-12-23T05:59:46.514Z,91.29
2018-12-23T06:02:13.931Z,91.12
2018-12-23T06:04:41.439Z,91.24
2018-12-23T06:07:08.993Z,91.24
2018-12-23T06:09:36.432Z,90.53
2018-12-23T06:12:03.894Z,90.99
2018-12-23T06:14:31.327Z,90.56
2018-12-23T06:16:58.811Z,90.71
2018-12-23T06:19:26.240Z,91.49
2018-12-23T06:21:53.669Z,90.71
2018-12-23T06:24:21.169Z,90.85
2018-12-23T06:26:48.597Z,91.03
2018-12-23T06:29:16.017Z,91.13
2018-12-23T06:31:43.504Z,90.75
2018-12-23T06:34:10.917Z,90.38
2018-12-23T06:36:38.362Z,90.92
2018-12-23T06:39:06.129Z,90.54
2018-12-23T06:41:33.619Z,90.65
2018-12-23T06:44:01.139Z,91.46
2018-12-23T06:46:28.575Z,91.07
2018-12-23T06:48:56.078Z,91.30
2018-12-23T06:51:23.508Z,90.40
2018-12-23T06:53:50.995Z,90.70
2018-12-23T06:56:18.435Z,90.10
2018-12-23T06:58:45.885Z,90.71
2018-12-23T07:01:13.356Z,90.40
2018-12-23T07:03:40.815Z,91.00
2018-12-23T07:06:08.362Z,90.95
2018-12-23T07:08:36.305Z,90.71
2018-12-23T07:11:03.921Z,90.76
2018-12-23T07:13:31.368Z,90.97
2018-12-23T07:15:58.813Z,91.15
2018-12-23T07:18:26.256Z,91.11
2018-12-23T07:20:55.299Z,90.77
2018-12-23T07:23:22.982Z,90.17
2018-12-23T07:25:50.473Z,90.54
2018-12-23T07:28:17.929Z,90.36
2018-12-23T07:30:45.405Z,90.26
2018-12-23T07:33:12.830Z,90.40
2018-12-23T07:35:40.302Z,90.62
2018-12-23T07:38:07.772Z,90.49
2018-12-23T07:40:35.200Z,90.60
2018-12-23T07:43:02.891Z,90.29
2018-12-23T07:45:30.301Z,90.96
2018-12-23T07:47:57.800Z,90.79
2018-12-23T07:50:25.213Z,90.68
2018-12-23T07:52:52.655Z,90.94
2018-12-23T07:55:20.087Z,90.59
2018-12-23T07:57:47.506Z,90.43
2018-12-23T08:00:14.995Z,90.86
2018-12-23T08:02:42.440Z,90.84
2018-12-23T08:05:09.897Z,90.27
2018-12-23T08:07:37.342Z,90.76
2018-12-23T08:10:05.050Z,90.56
2018-12-23T08:12:32.565Z,90.53
2018-12-23T08:14:59.977Z,90.75
2018-12-23T08:17:27.475Z,90.07
2018-12-23T08:19:54.944Z,90.29
2018-12-23T08:22:22.376Z,90.08
2018-12-23T08:24:49.811Z,90.57
2018-12-23T08:27:17.225Z,90.22
2018-12-23T08:29:44.680Z,89.93
2018-12-23T08:32:12.112Z,90.57
2018-12-23T08:34:39.592Z,90.72
2018-12-23T08:37:07.013Z,90.09
2018-12-23T08:39:34.493Z,90.13
2018-12-23T08:42:01.957Z,89.76
2018-12-23T08:44:29.405Z,90.46
2018-12-23T08:46:56.830Z,89.78
2018-12-23T08:49:24.324Z,89.93
2018-12-23T08:51:51.875Z,90.12
2018-12-23T08:54:19.346Z,89.98
2018-12-23T08:56:46.807Z,89.89
2018-12-23T08:59:14.245Z,89.86
2018-12-23T09:01:41.706Z,89.77
2018-12-23T09:04:09.270Z,89.63
2018-12-23T09:06:36.737Z,90.08
2018-12-23T09:09:05.513Z,89.53
2018-12-23T09:11:32.935Z,89.77
2018-12-23T09:14:00.353Z,89.58
2018-12-23T09:16:27.985Z,89.84
2018-12-23T09:18:55.455Z,89.12
2018-12-23T09:21:22.897Z,89.63
2018-12-23T09:23:50.369Z,89.34
2018-12-23T09:26:17.817Z,89.17
2018-12-23T09:28:45.370Z,88.73
2018-12-23T09:31:12.804Z,88.94
2018-12-23T09:33:40.305Z,88.85
2018-12-23T09:36:07.736Z,88.45
2018-12-23T09:38:35.175Z,88.87
2018-12-23T09:41:02.623Z,88.81
2018-12-23T09:43:30.256Z,88.01
2018-12-23T09:45:57.692Z,88.39
2018-12-23T09:48:25.113Z,88.58
2018-12-23T09:50:52.593Z,87.97
2018-12-23T09:53:20.039Z,87.96
2018-12-23T09:55:47.480Z,87.77
2018-12-23T09:58:15.266Z,87.78
2018-12-23T10:00:42.695Z,87.30
2018-12-23T10:03:10.191Z,86.94
2018-12-23T10:05:37.616Z,87.00
2018-12-23T10:08:10.011Z,87.64
2018-12-23T10:10:34.540Z,87.30
2018-12-23T10:13:02.064Z,87.12
2018-12-23T10:15:29.517Z,86.30
2018-12-23T10:17:56.995Z,85.96
2018-12-23T10:20:24.481Z,85.76
2018-12-23T10:22:51.992Z,86.21
2018-12-23T10:25:19.463Z,86.47
2018-12-23T10:27:46.893Z,86.85
2018-12-23T10:30:14.312Z,86.28
2018-12-23T10:32:41.734Z,86.40
2018-12-23T10:35:09.193Z,86.76
2018-12-23T10:37:36.742Z,86.27
2018-12-23T10:40:05.351Z,87.02
2018-12-23T10:42:32.877Z,86.34
2018-12-23T10:45:00.347Z,86.33
2018-12-23T10:47:27.781Z,86.54
2018-12-23T10:49:55.258Z,86.62
2018-12-23T10:52:22.696Z,86.62
2018-12-23T10:54:50.143Z,86.59
2018-12-23T10:57:17.557Z,86.07
2018-12-23T10:59:45.084Z,85.68
2018-12-23T11:02:13.726Z,85.72
2018-12-23T11:04:41.582Z,86.60
2018-12-23T11:07:09.030Z,86.19
2018-12-23T11:09:36.452Z,86.31
2018-12-23T11:12:03.898Z,85.73
2018-12-23T11:14:31.310Z,85.72
2018-12-23T11:16:58.761Z,85.94
2018-12-23T11:19:26.232Z,86.14
2018-12-23T11:21:53.680Z,86.04
2018-12-23T11:24:21.093Z,86.24
2018-12-23T11:26:48.533Z,86.23
2018-12-23T11:29:16.039Z,86.38
2018-12-23T11:31:43.449Z,86.54
2018-12-23T11:34:10.904Z,87.08
2018-12-23T11:36:38.333Z,87.06
2018-12-23T11:39:06.658Z,87.43
2018-12-23T11:41:34.085Z,87.52
2018-12-23T11:44:01.553Z,88.21
2018-12-23T11:46:29.013Z,88.58
2018-12-23T11:48:56.445Z,89.62
2018-12-23T11:51:23.931Z,89.38
2018-12-23T11:53:51.356Z,88.84
2018-12-23T11:56:18.859Z,89.80
2018-12-23T11:58:46.285Z,89.52
2018-12-23T12:01:13.759Z,89.03
2018-12-23T12:03:41.324Z,90.16
2018-12-23T12:06:08.734Z,90.52
2018-12-23T12:08:43.536Z,90.32
2018-12-23T12:11:05.625Z,90.63
2018-12-23T12:13:33.058Z,91.12
2018-12-23T12:16:00.484Z,91.76
2018-12-23T12:18:27.991Z,91.81
2018-12-23T12:20:55.447Z,91.56
2018-12-23T12:23:22.911Z,91.36
2018-12-23T12:25:50.348Z,92.11
2018-12-23T12:28:17.840Z,91.96
2018-12-23T12:30:45.259Z,92.41
2018-12-23T12:33:12.729Z,92.12
2018-12-23T12:35:40.207Z,92.60
2018-12-23T12:38:07.660Z,92.42
2018-12-23T12:40:35.115Z,92.93
2018-12-23T12:43:02.552Z,92.87
2018-12-23T12:45:29.976Z,92.28
2018-12-23T12:47:57.481Z,92.45
2018-12-23T12:50:24.954Z,93.18
2018-12-23T12:52:52.638Z,92.77
2018-12-23T12:55:20.222Z,93.43
2018-12-23T12:57:47.645Z,93.53
2018-12-23T13:00:15.076Z,92.71
2018-12-23T13:02:42.545Z,93.17
2018-12-23T13:05:10.078Z,93.03
2018-12-23T13:07:37.486Z,93.14
2018-12-23T13:10:05.214Z,93.37
2018-12-23T13:12:32.659Z,93.82
2018-12-23T13:15:00.149Z,93.05
2018-12-23T13:17:27.688Z,93.65
2018-12-23T13:19:55.136Z,93.44
2018-12-23T13:22:22.554Z,94.02
2018-12-23T13:24:50.000Z,93.61
2018-12-23T13:27:17.599Z,93.37
2018-12-23T13:29:45.066Z,93.52
2018-12-23T13:32:12.532Z,93.02
2018-12-23T13:34:39.965Z,93.55
2018-12-23T13:37:07.448Z,93.57
2018-12-23T13:39:34.868Z,93.08
2018-12-23T13:42:06.237Z,93.58
2018-12-23T13:44:42.298Z,92.90
2018-12-23T13:47:31.469Z,93.43
2018-12-23T13:54:09.531Z,93.31
2018-12-23T13:57:17.986Z,93.37
2018-12-23T14:00:25.104Z,93.38
2018-12-23T14:03:33.637Z,92.88
2018-12-23T14:06:41.013Z,93.29
2018-12-23T14:09:30.340Z,93.23
2018-12-23T14:12:18.145Z,93.10
2018-12-23T14:14:46.533Z,93.27
2018-12-23T14:17:14.949Z,93.29
2018-12-23T14:19:43.359Z,93.38
2018-12-23T14:22:31.103Z,93.46
2018-12-23T14:24:59.511Z,93.42
2018-12-23T14:27:27.924Z,93.06
2018-12-23T14:29:57.364Z,92.99
2018-12-23T14:32:26.480Z,93.05
2018-12-23T14:34:54.879Z,93.02
2018-12-23T14:37:42.751Z,92.84
2018-12-23T14:40:11.142Z,92.63
2018-12-23T14:42:39.545Z,92.42
2018-12-23T14:45:27.318Z,92.33
2018-12-23T14:47:56.036Z,92.36
2018-12-23T14:50:24.423Z,92.53
2018-12-23T14:53:11.969Z,92.62
2018-12-23T14:58:27.703Z,92.86
2018-12-23T15:00:56.105Z,93.01
2018-12-23T15:03:24.521Z,93.15
2018-12-23T15:05:52.924Z,93.22
2018-12-23T15:08:21.345Z,93.20
2018-12-23T15:10:49.732Z,93.26
2018-12-23T15:19:39.124Z,93.48
2018-12-23T15:22:07.856Z,93.57
2018-12-23T15:24:36.291Z,93.67
2018-12-23T15:27:04.742Z,93.72
2018-12-23T15:29:33.487Z,93.87
2018-12-23T15:32:02.186Z,93.94
2018-12-23T15:34:30.605Z,93.96
2018-12-23T15:36:59.022Z,93.99
2018-12-23T15:39:46.787Z,94.07
2018-12-23T15:42:15.454Z,94.13
2018-12-23T15:44:43.874Z,94.23
2018-12-23T15:47:12.241Z,94.30
2018-12-23T15:49:40.670Z,94.38
2018-12-23T15:52:09.069Z,94.45
2018-12-23T15:54:37.497Z,94.54
2018-12-23T15:57:05.876Z,94.57
2018-12-23T15:59:34.529Z,94.57
2018-12-23T16:02:02.954Z,94.57
2018-12-23T16:04:31.690Z,94.52
2018-12-23T16:09:53.167Z,94.54
2018-12-23T16:12:40.711Z,94.52
2018-12-23T16:15:09.174Z,94.46
2018-12-23T16:17:37.595Z,94.31
2018-12-23T16:20:46.294Z,94.38
2018-12-23T16:23:14.717Z,94.43
2018-12-23T16:25:43.401Z,94.43
2018-12-23T16:28:11.811Z,94.44
2018-12-23T16:30:59.598Z,94.48
2018-12-23T16:33:47.367Z,94.44
2018-12-23T16:36:15.789Z,94.53
2018-12-23T16:38:44.181Z,94.50
2018-12-23T16:41:12.608Z,94.52
2018-12-23T16:43:40.998Z,94.60
2018-12-23T16:48:56.741Z,94.68
2018-12-23T16:51:25.160Z,94.84
2018-12-23T16:53:53.547Z,94.86
2018-12-23T16:56:21.950Z,94.85
2018-12-23T17:01:24.245Z,94.87
2018-12-23T17:04:12.286Z,94.88
2018-12-23T17:06:40.790Z,94.98
2018-12-23T17:09:28.863Z,94.97
2018-12-23T17:11:57.271Z,94.92
2018-12-23T17:14:25.686Z,94.88
2018-12-23T17:17:13.225Z,95.36
2018-12-23T17:19:41.644Z,95.30
2018-12-23T17:22:10.301Z,95.65
2018-12-23T17:24:38.720Z,95.74
2018-12-23T17:27:07.153Z,95.67
2018-12-23T17:29:35.847Z,95.78
2018-12-23T17:32:04.537Z,96.02
2018-12-23T17:34:33.224Z,96.48
2018-12-23T17:37:01.661Z,96.46
2018-12-23T17:42:19.767Z,96.50
2018-12-23T17:44:48.186Z,96.77
2018-12-23T17:47:35.969Z,96.73
2018-12-23T17:50:44.408Z,96.80
2018-12-23T17:56:05.605Z,96.95
2018-12-23T17:58:34.282Z,97.03
2018-12-23T18:01:22.071Z,97.10
2018-12-23T18:03:50.491Z,96.91
2018-12-23T18:06:19.201Z,97.21
2018-12-23T18:08:47.614Z,97.36
2018-12-23T18:11:16.035Z,97.51
2018-12-23T18:14:03.859Z,97.60
2018-12-23T18:19:25.318Z,97.71
2018-12-23T18:22:13.113Z,97.93
2018-12-23T18:24:41.536Z,98.16
2018-12-23T18:27:10.231Z,98.34
2018-12-23T18:32:49.627Z,98.73
2018-12-23T18:38:24.717Z,98.48
2018-12-23T18:40:53.122Z,98.72
2018-12-23T18:43:40.687Z,98.52
2018-12-23T18:48:56.458Z,98.76
2018-12-23T18:51:24.854Z,98.84
2018-12-23T18:54:12.645Z,98.71
2018-12-23T18:56:41.363Z,99.04
2018-12-23T18:59:09.758Z,99.21
2018-12-23T19:04:32.697Z,99.37
2018-12-23T19:07:22.009Z,99.37
2018-12-23T19:10:30.465Z,99.34
2018-12-23T19:13:37.576Z,99.38
2018-12-23T19:16:46.095Z,99.37
2018-12-23T19:19:54.900Z,99.09
2018-12-23T19:23:02.283Z,99.44
2018-12-23T19:26:09.425Z,99.23
2018-12-23T19:35:31.231Z,99.23
2018-12-23T19:38:39.677Z,99.19
2018-12-23T19:41:48.129Z,99.15
2018-12-23T19:44:57.165Z,99.69
2018-12-23T19:48:04.290Z,99.93
2018-12-23T19:51:11.429Z,99.95
2018-12-23T19:54:20.200Z,100.00
2018-12-23T19:57:27.347Z,100.00
2018-12-23T20:00:35.805Z,100.00
2018-12-23T20:06:42.076Z,100.00
2018-12-23T20:09:31.473Z,100.00
2018-12-23T20:12:11.613Z,100.00
2018-12-23T20:14:45.874Z,100.00
2018-12-23T20:17:26.681Z,100.00
2018-12-23T20:20:01.418Z,100.00
2018-12-23T20:22:41.187Z,100.00
2018-12-23T20:25:18.160Z,100.00
2018-12-23T20:28:09.026Z,100.00
2018-12-23T20:30:40.614Z,100.00
2018-12-23T20:33:27.076Z,100.00
2018-12-23T20:36:15.063Z,100.00
2018-12-23T20:38:52.759Z,100.00
2018-12-23T20:41:57.524Z,100.00
2018-12-23T20:44:43.815Z,100.00
2018-12-23T20:47:21.167Z,100.00
2018-12-23T20:50:01.467Z,100.00
2018-12-23T20:52:47.677Z,100.00
2018-12-23T20:55:24.945Z,100.00
2018-12-23T20:58:08.217Z,100.00
2018-12-23T21:01:02.139Z,100.00
2018-12-23T21:03:42.498Z,100.00
2018-12-23T21:06:39.930Z,100.00
2018-12-23T21:09:44.601Z,100.00
2018-12-23T21:12:34.499Z,100.00
2018-12-23T21:15:37.822Z,100.00
2018-12-23T21:18:25.824Z,100.00
2018-12-23T21:21:15.455Z,100.00
2018-12-23T21:24:12.300Z,100.00
2018-12-23T21:26:49.680Z,100.00
2018-12-23T21:29:36.922Z,100.00
2018-12-23T21:32:38.323Z,100.00
2018-12-23T21:35:09.907Z,100.00
2018-12-23T21:38:12.290Z,100.00
2018-12-23T21:40:55.163Z,100.00
2018-12-23T21:43:49.203Z,100.00
2018-12-23T21:46:23.388Z,100.00
2018-12-23T21:49:00.511Z,100.00
2018-12-23T21:51:50.215Z,100.00
2018-12-23T21:54:27.451Z,100.00
2018-12-23T21:57:10.747Z,100.00
2018-12-23T21:59:47.956Z,100.00
2018-12-23T22:02:28.037Z,100.00
2018-12-23T22:05:05.368Z,100.00
2018-12-23T22:07:54.685Z,100.00
2018-12-23T22:10:38.049Z,100.00
2018-12-23T22:13:27.333Z,100.00
2018-12-23T22:15:55.737Z,100.00
2018-12-23T22:18:24.119Z,100.00
2018-12-23T22:20:52.523Z,100.00
2018-12-23T22:23:20.933Z,100.00
2018-12-23T22:25:49.345Z,100.00
2018-12-23T22:28:17.732Z,100.00
2018-12-23T22:30:46.154Z,100.00
2018-12-23T22:33:14.558Z,100.00
2018-12-23T22:35:43.083Z,100.00
2018-12-23T22:38:11.452Z,99.93
2018-12-23T22:40:39.952Z,99.91
2018-12-23T22:43:08.362Z,99.85
2018-12-23T22:45:37.024Z,99.97
2018-12-23T22:48:05.495Z,100.00
2018-12-23T22:50:34.156Z,100.00
2018-12-23T22:53:02.801Z,100.00
2018-12-23T22:55:31.200Z,100.00
2018-12-23T22:57:59.623Z,100.00
2018-12-23T23:00:31.590Z,100.00
2018-12-23T23:03:08.780Z,100.00
2018-12-23T23:05:30.672Z,99.97
2018-12-23T23:07:59.076Z,100.00
2018-12-23T23:10:27.470Z,100.00
2018-12-23T23:12:56.144Z,99.95
2018-12-23T23:15:24.555Z,99.83
2018-12-23T23:17:52.960Z,100.00
2018-12-23T23:20:21.382Z,100.00
2018-12-23T23:22:49.770Z,100.00
2018-12-23T23:25:18.181Z,99.81
2018-12-23T23:27:46.570Z,99.97
2018-12-23T23:30:14.970Z,99.94
2018-12-23T23:32:43.625Z,99.74
2018-12-23T23:35:12.271Z,99.84
2018-12-23T23:37:40.934Z,99.92
2018-12-23T23:40:09.598Z,99.77
2018-12-23T23:42:38.015Z,99.53
2018-12-23T23:45:06.406Z,99.62
2018-12-23T23:47:34.808Z,99.51
2018-12-23T23:50:03.205Z,99.56
2018-12-23T23:52:31.622Z,99.50
2018-12-23T23:55:00.032Z,99.41
2018-12-23T23:57:28.436Z,99.46
2018-12-23T23:59:56.831Z,99.50
